Time;durP1;ratioP1;P1;durP2;ratioP2;P2;SDS_P1;SDS_P2;PMS_P1;PMS_P2;Temp;Humidity;BMP_temperature;BMP_pressure;BME280_temperature;BME280_humidity;BME280_pressure;Samples;Min_cycle;Max_cycle;Signal;HPM_P1;HPM_P2
2023/10/17 00:01:19;;;;;;;5.87;1.13;;;9.00;95.60;;;;;;4955895;29;20106;-80
2023/10/17 00:03:45;;;;;;;5.40;1.33;;;9.00;95.60;;;;;;4955683;29;20189;-80
2023/10/17 00:06:22;;;;;;;6.90;1.33;;;9.00;95.70;;;;;;4955161;29;20030;-80
2023/10/17 00:08:50;;;;;;;3.80;1.07;;;9.00;95.70;;;;;;4955767;29;20154;-80
2023/10/17 00:11:17;;;;;;;5.70;1.70;;;9.00;95.90;;;;;;4955285;29;20514;-79
2023/10/17 00:16:30;;;;;;;5.13;1.63;;;9.00;95.70;;;;;;4955793;29;20105;-78
2023/10/17 00:19:04;;;;;;;4.57;1.17;;;9.00;95.80;;;;;;4938109;29;20027;-78
2023/10/17 00:21:31;;;;;;;8.30;1.33;;;9.00;95.80;;;;;;4954899;29;20129;-79
2023/10/17 00:23:59;;;;;;;5.10;1.57;;;9.00;95.80;;;;;;4953706;29;20596;-79
2023/10/17 00:26:26;;;;;;;5.27;1.50;;;9.00;95.90;;;;;;4955334;29;20391;-80
2023/10/17 00:28:52;;;;;;;6.27;1.10;;;9.00;95.90;;;;;;4955487;29;20033;-80
2023/10/17 00:31:23;;;;;;;4.07;1.57;;;9.00;95.90;;;;;;4955283;29;20051;-81
2023/10/17 00:33:57;;;;;;;6.87;1.57;;;9.00;95.90;;;;;;4954344;29;20049;-80
2023/10/17 00:36:26;;;;;;;7.70;1.67;;;9.00;95.90;;;;;;4955822;29;20546;-80
2023/10/17 00:38:53;;;;;;;6.17;1.37;;;9.00;96.00;;;;;;4955954;29;20456;-78
2023/10/17 00:41:29;;;;;;;5.63;1.23;;;9.00;95.90;;;;;;4955748;29;20063;-79
2023/10/17 00:43:55;;;;;;;4.77;1.60;;;9.00;95.90;;;;;;4954545;29;20093;-80
2023/10/17 00:46:21;;;;;;;4.23;1.00;;;9.00;95.90;;;;;;4955498;29;20035;-80
2023/10/17 00:48:48;;;;;;;5.10;1.40;;;9.00;95.90;;;;;;4937379;29;20042;-80
2023/10/17 00:51:19;;;;;;;4.30;1.23;;;9.00;96.00;;;;;;4954584;29;20102;-80
2023/10/17 00:53:46;;;;;;;4.30;1.20;;;9.00;96.00;;;;;;4954164;28;20027;-80
2023/10/17 00:56:13;;;;;;;6.73;1.60;;;9.00;96.00;;;;;;4953645;29;20090;-80
2023/10/17 00:58:39;;;;;;;4.83;1.50;;;9.00;96.00;;;;;;4954830;29;20032;-80
2023/10/17 01:01:16;;;;;;;3.63;1.10;;;9.00;96.10;;;;;;4954771;29;20399;-78
2023/10/17 01:03:45;;;;;;;5.50;1.70;;;9.00;96.10;;;;;;4954482;29;20035;-80
2023/10/17 01:08:50;;;;;;;3.80;1.10;;;9.00;96.20;;;;;;4955131;29;20090;-80
2023/10/17 01:11:27;;;;;;;9.37;1.90;;;8.90;96.10;;;;;;4954657;29;20064;-80
2023/10/17 01:13:54;;;;;;;5.07;1.20;;;9.00;96.20;;;;;;4937140;29;20039;-80
2023/10/17 01:16:20;;;;;;;3.93;1.40;;;9.00;96.20;;;;;;4937360;29;20066;-80
2023/10/17 01:18:47;;;;;;;6.03;1.50;;;9.00;96.20;;;;;;4937091;29;20042;-80
2023/10/17 01:21:13;;;;;;;6.20;1.00;;;9.00;96.20;;;;;;4937382;29;20051;-80
2023/10/17 01:23:39;;;;;;;4.20;1.20;;;9.00;96.20;;;;;;4954546;29;20031;-80
2023/10/17 01:26:08;;;;;;;4.60;0.87;;;9.00;96.20;;;;;;4954455;29;20028;-80
2023/10/17 01:28:35;;;;;;;4.43;1.40;;;9.00;96.20;;;;;;4954620;29;20031;-81
2023/10/17 01:31:03;;;;;;;5.60;1.70;;;9.00;96.30;;;;;;4954494;29;20051;-80
2023/10/17 01:33:31;;;;;;;4.23;1.10;;;9.00;96.30;;;;;;4954417;29;20057;-80
2023/10/17 01:35:58;;;;;;;6.87;1.30;;;9.00;96.30;;;;;;4954522;29;20039;-80
2023/10/17 01:38:28;;;;;;;4.27;1.30;;;9.00;96.30;;;;;;4954553;29;20091;-80
2023/10/17 01:40:59;;;;;;;6.10;2.03;;;9.00;96.30;;;;;;4954334;29;20039;-80
2023/10/17 01:43:25;;;;;;;7.17;1.67;;;8.90;96.30;;;;;;4953055;29;20046;-80
2023/10/17 01:45:50;;;;;;;6.33;1.10;;;9.00;96.40;;;;;;4954386;29;20036;-80
2023/10/17 01:48:21;;;;;;;3.97;1.07;;;9.00;96.40;;;;;;4953900;29;20059;-80
2023/10/17 01:50:46;;;;;;;4.73;1.10;;;9.00;96.40;;;;;;4954564;29;20034;-80
2023/10/17 01:53:12;;;;;;;3.93;1.37;;;8.90;96.30;;;;;;4954341;29;20472;-80
2023/10/17 01:55:45;;;;;;;5.20;1.73;;;8.90;96.40;;;;;;4953992;29;20028;-80
2023/10/17 01:58:15;;;;;;;4.23;1.23;;;9.00;96.40;;;;;;4953123;29;20035;-81
2023/10/17 02:00:42;;;;;;;4.87;1.40;;;9.00;96.40;;;;;;4954400;29;20035;-80
2023/10/17 02:03:12;;;;;;;6.50;1.60;;;8.90;96.30;;;;;;4954020;29;20040;-80
2023/10/17 02:05:38;;;;;;;3.07;1.30;;;8.90;96.30;;;;;;4955748;28;20035;-80
2023/10/17 02:08:05;;;;;;;4.13;1.53;;;9.00;96.40;;;;;;4957719;29;20031;-80
2023/10/17 02:10:31;;;;;;;4.17;1.80;;;8.90;96.40;;;;;;4957792;29;20037;-80
2023/10/17 02:12:57;;;;;;;3.50;1.40;;;9.00;96.40;;;;;;4956033;29;20297;-80
2023/10/17 02:15:23;;;;;;;6.93;2.10;;;9.00;96.40;;;;;;4956169;29;20135;-80
2023/10/17 02:17:52;;;;;;;7.57;1.67;;;8.90;96.50;;;;;;4939904;29;20472;-80
2023/10/17 02:20:47;;;;;;;6.53;1.67;;;8.90;96.50;;;;;;4957574;29;20329;-80
2023/10/17 02:23:20;;;;;;;4.97;1.80;;;8.80;96.50;;;;;;4956711;29;20424;-80
2023/10/17 02:25:46;;;;;;;5.70;2.00;;;8.90;96.60;;;;;;4957565;29;20051;-79
2023/10/17 02:28:12;;;;;;;5.07;1.90;;;8.90;96.60;;;;;;4957098;29;20397;-80
2023/10/17 02:30:38;;;;;;;5.60;1.77;;;8.90;96.70;;;;;;4936269;29;20080;-80
2023/10/17 02:33:11;;;;;;;6.07;2.33;;;8.90;96.70;;;;;;4937996;29;20095;-80
2023/10/17 02:35:41;;;;;;;3.28;1.23;;;8.90;96.70;;;;;;4938133;29;20527;-80
2023/10/17 02:38:08;;;;;;;6.97;1.90;;;8.90;96.70;;;;;;4938097;29;20139;-80
2023/10/17 02:40:34;;;;;;;4.83;1.83;;;8.90;96.80;;;;;;4937893;29;20096;-80
2023/10/17 02:43:00;;;;;;;5.37;2.50;;;8.90;96.80;;;;;;4938236;29;20043;-80
2023/10/17 02:45:26;;;;;;;7.77;2.20;;;8.90;96.80;;;;;;4920700;29;20035;-80
2023/10/17 02:47:57;;;;;;;5.43;1.80;;;8.90;96.80;;;;;;4937824;29;20036;-81
2023/10/17 02:50:42;;;;;;;5.67;2.53;;;8.90;96.80;;;;;;4920882;29;20528;-80
2023/10/17 02:53:14;;;;;;;6.87;2.40;;;8.80;96.80;;;;;;4938277;29;20031;-80
2023/10/17 02:55:39;;;;;;;4.43;1.87;;;8.80;96.80;;;;;;4938262;29;20106;-80
2023/10/17 02:58:05;;;;;;;6.27;2.20;;;8.80;96.80;;;;;;4937688;29;20113;-80
2023/10/17 03:00:34;;;;;;;6.57;2.43;;;8.80;96.90;;;;;;4937647;29;20032;-80
2023/10/17 03:03:00;;;;;;;9.80;2.50;;;8.80;96.90;;;;;;4937864;29;20039;-80
2023/10/17 03:05:30;;;;;;;5.10;2.40;;;8.80;96.90;;;;;;4937637;29;20119;-80
2023/10/17 03:07:55;;;;;;;8.17;2.30;;;8.80;96.90;;;;;;4937170;29;20111;-79
2023/10/17 03:13:22;;;;;;;8.10;2.70;;;8.80;97.00;;;;;;4936969;29;20020;-80
2023/10/17 03:15:56;;;;;;;10.07;3.30;;;8.80;97.00;;;;;;4937168;29;20485;-80
2023/10/17 03:18:22;;;;;;;10.17;3.20;;;8.80;97.00;;;;;;4937323;29;20047;-80
2023/10/17 03:20:51;;;;;;;5.47;2.17;;;8.80;97.00;;;;;;4937207;29;20042;-81
2023/10/17 03:23:18;;;;;;;5.90;2.67;;;8.80;97.00;;;;;;4937247;29;20040;-80
2023/10/17 03:25:46;;;;;;;5.27;2.90;;;8.80;97.00;;;;;;4937315;29;20039;-81
2023/10/17 03:28:13;;;;;;;8.53;3.03;;;8.80;97.00;;;;;;4937246;29;20028;-81
2023/10/17 03:30:40;;;;;;;7.97;3.43;;;8.80;97.10;;;;;;4938232;29;20047;-80
2023/10/17 03:33:08;;;;;;;7.33;2.87;;;8.80;97.10;;;;;;4956002;29;20455;-80
2023/10/17 03:35:45;;;;;;;5.70;2.50;;;8.80;97.10;;;;;;4955987;29;20028;-79
2023/10/17 03:38:14;;;;;;;7.03;3.00;;;8.80;97.20;;;;;;4955952;29;20399;-79
2023/10/17 03:40:53;;;;;;;5.97;2.57;;;8.80;97.10;;;;;;4955944;29;20046;-80
2023/10/17 03:43:21;;;;;;;7.00;2.73;;;8.80;97.10;;;;;;4955722;29;20479;-79
2023/10/17 03:45:57;;;;;;;6.27;2.60;;;8.80;97.20;;;;;;4955729;29;20193;-79
2023/10/17 03:48:28;;;;;;;6.33;3.17;;;8.80;97.20;;;;;;4940480;29;20049;-79
2023/10/17 03:55:50;;;;;;;6.60;2.90;;;8.80;97.20;;;;;;4964076;28;20049;-80
2023/10/17 04:01:10;;;;;;;8.40;2.95;;;8.70;97.30;;;;;;4955957;29;20134;-80
2023/10/17 04:03:36;;;;;;;6.80;3.07;;;8.70;97.30;;;;;;4955200;29;20054;-80
2023/10/17 04:08:37;;;;;;;10.37;2.53;;;8.70;97.40;;;;;;4955601;29;20087;-79
2023/10/17 04:13:52;;;;;;;6.70;2.70;;;8.80;97.40;;;;;;4955006;29;20047;-80
2023/10/17 04:16:44;;;;;;;5.13;2.40;;;8.70;97.40;;;;;;4955674;29;20031;-80
2023/10/17 04:19:17;;;;;;;5.60;2.57;;;8.70;97.40;;;;;;4954965;29;20035;-80
2023/10/17 04:22:01;;;;;;;6.00;2.80;;;8.70;97.40;;;;;;4955617;29;20103;-80
2023/10/17 04:24:35;;;;;;;10.15;2.95;;;8.70;97.40;;;;;;4955250;29;20039;-79
2023/10/17 04:27:22;;;;;;;7.97;2.40;;;8.70;97.50;;;;;;4955220;29;20035;-80
2023/10/17 04:29:50;;;;;;;6.63;2.60;;;8.70;97.50;;;;;;4953510;28;20388;-80
2023/10/17 04:32:22;;;;;;;5.33;2.90;;;8.70;97.50;;;;;;4954993;29;20048;-80
2023/10/17 04:34:52;;;;;;;8.00;2.93;;;8.70;97.60;;;;;;4955341;29;20028;-80
2023/10/17 04:37:24;;;;;;;7.13;3.03;;;8.70;97.60;;;;;;4938512;29;20051;-79
2023/10/17 04:39:57;;;;;;;6.37;3.03;;;8.70;97.60;;;;;;4956035;29;20027;-81
2023/10/17 04:42:47;;;;;;;7.07;3.10;;;8.70;97.60;;;;;;4956641;29;20480;-79
2023/10/17 04:45:14;;;;;;;5.67;2.80;;;8.70;97.60;;;;;;4955525;29;20035;-79
2023/10/17 04:47:43;;;;;;;5.27;3.00;;;8.70;97.60;;;;;;4938188;29;20027;-78
2023/10/17 04:50:11;;;;;;;7.63;3.03;;;8.80;97.70;;;;;;4955119;29;20027;-79
2023/10/17 04:52:41;;;;;;;7.03;2.80;;;8.70;97.70;;;;;;4953640;29;20036;-79
2023/10/17 04:55:22;;;;;;;7.17;2.87;;;8.80;97.80;;;;;;4954807;29;20027;-79
2023/10/17 05:03:13;;;;;;;6.77;3.13;;;8.80;97.80;;;;;;4954692;29;20035;-79
2023/10/17 05:09:00;;;;;;;8.07;3.00;;;8.80;97.80;;;;;;4901869;29;20035;-79
2023/10/17 06:17:20;;;;;;;20.08;11.50;;;8.60;97.80;;;;;;4976424;28;20126;-80
2023/10/17 06:19:46;;;;;;;18.93;11.53;;;8.50;97.80;;;;;;4975425;28;20125;-79
2023/10/17 06:32:48;;;;;;;17.23;9.47;;;8.50;98.10;;;;;;4977562;28;20061;-79
2023/10/17 06:35:20;;;;;;;17.63;9.60;;;8.50;98.10;;;;;;4976487;28;20117;-81
2023/10/17 06:37:49;;;;;;;17.17;9.77;;;8.50;98.10;;;;;;4976130;28;20114;-80
2023/10/17 06:40:16;;;;;;;15.43;9.10;;;8.40;98.10;;;;;;4959297;28;20045;-80
2023/10/17 06:42:49;;;;;;;14.90;8.07;;;8.40;98.20;;;;;;4976270;28;20074;-78
2023/10/17 06:45:19;;;;;;;15.27;9.07;;;8.40;98.50;;;;;;4959018;28;20034;-80
2023/10/17 06:47:49;;;;;;;16.57;8.20;;;8.40;98.30;;;;;;4976277;28;20490;-81
2023/10/17 06:55:21;;;;;;;13.20;8.07;;;8.40;98.40;;;;;;4976639;28;20094;-79
2023/10/17 06:57:50;;;;;;;11.80;7.27;;;8.30;98.50;;;;;;4976372;28;20118;-81
2023/10/17 07:00:24;;;;;;;13.73;7.87;;;8.40;98.50;;;;;;4976427;28;20031;-80
2023/10/17 07:02:50;;;;;;;13.55;8.15;;;8.30;98.50;;;;;;4976001;28;20046;-80
2023/10/17 07:05:21;;;;;;;14.27;8.37;;;8.30;98.50;;;;;;4976134;28;20107;-79
2023/10/17 07:07:52;;;;;;;14.63;7.77;;;8.30;98.60;;;;;;4975528;28;20557;-80
2023/10/17 07:10:38;;;;;;;14.93;8.20;;;8.30;98.60;;;;;;4958589;28;20054;-80
2023/10/17 07:13:41;;;;;;;13.13;7.37;;;8.30;98.70;;;;;;4958112;28;20097;-80
2023/10/17 07:16:11;;;;;;;13.70;7.50;;;8.30;98.70;;;;;;4958502;28;20035;-79
2023/10/17 07:18:44;;;;;;;13.20;6.87;;;8.30;98.80;;;;;;4958243;28;20031;-80
2023/10/17 07:23:48;;;;;;;15.80;6.90;;;8.40;98.90;;;;;;4975507;28;20106;-80
2023/10/17 07:26:35;;;;;;;11.60;5.63;;;8.40;99.00;;;;;;4958215;28;20038;-78
2023/10/17 07:29:05;;;;;;;10.70;5.90;;;8.40;99.00;;;;;;4975882;28;20414;-79
2023/10/17 07:31:30;;;;;;;12.27;6.60;;;8.40;99.10;;;;;;4958723;28;20085;-80
2023/10/17 07:36:43;;;;;;;11.07;6.53;;;8.50;99.10;;;;;;4975505;28;20038;-79
2023/10/17 07:39:29;;;;;;;10.77;6.20;;;8.50;99.20;;;;;;4958013;28;20039;-79
2023/10/17 07:41:55;;;;;;;14.70;7.00;;;8.60;99.20;;;;;;4975427;28;20049;-79
2023/10/17 07:44:26;;;;;;;13.40;5.80;;;8.60;99.20;;;;;;4958125;28;20489;-79
2023/10/17 07:47:09;;;;;;;13.30;7.30;;;8.60;99.30;;;;;;4975287;28;20031;-80
2023/10/17 07:49:35;;;;;;;11.67;6.70;;;8.60;99.30;;;;;;4957614;28;20495;-79
2023/10/17 07:52:15;;;;;;;13.13;6.57;;;8.70;99.40;;;;;;4957284;28;20046;-78
2023/10/17 07:54:58;;;;;;;12.83;7.10;;;8.70;99.50;;;;;;4957898;28;20419;-78
2023/10/17 07:57:28;;;;;;;13.03;6.17;;;8.80;99.80;;;;;;4975339;28;20038;-78
2023/10/17 07:59:59;;;;;;;13.03;7.20;;;8.80;99.60;;;;;;4957297;28;20030;-78
2023/10/17 08:02:30;;;;;;;15.33;8.60;;;8.80;99.60;;;;;;4974869;28;20042;-78
2023/10/17 08:05:00;;;;;;;11.83;7.07;;;8.90;99.70;;;;;;4974778;28;20038;-77
2023/10/17 08:07:29;;;;;;;17.10;7.80;;;8.90;99.70;;;;;;4957286;28;20046;-78
2023/10/17 08:09:58;;;;;;;14.80;8.07;;;9.00;99.80;;;;;;4974810;28;20037;-78
2023/10/17 08:12:24;;;;;;;17.20;8.23;;;9.10;99.80;;;;;;4974439;28;20039;-77
2023/10/17 08:15:05;;;;;;;13.33;7.67;;;9.10;99.80;;;;;;4974468;28;20069;-78
2023/10/17 08:17:34;;;;;;;14.90;7.37;;;9.10;99.90;;;;;;4957136;28;20035;-78
2023/10/17 08:20:08;;;;;;;14.67;8.30;;;9.20;99.90;;;;;;4974477;28;20034;-78
2023/10/17 08:22:55;;;;;;;17.02;8.52;;;9.20;99.90;;;;;;4974901;28;20129;-78
2023/10/17 08:25:32;;;;;;;14.93;8.47;;;9.30;99.90;;;;;;4974926;28;20128;-78
2023/10/17 08:27:58;;;;;;;14.93;8.80;;;9.40;99.90;;;;;;4974741;28;20550;-78
2023/10/17 08:30:25;;;;;;;13.30;7.80;;;9.40;99.90;;;;;;4974358;28;20043;-78
2023/10/17 08:35:40;;;;;;;14.60;8.67;;;9.60;99.90;;;;;;4973750;28;20033;-78
2023/10/17 08:38:06;;;;;;;18.00;8.67;;;9.60;99.90;;;;;;4956597;28;20034;-77
2023/10/17 08:43:16;;;;;;;19.27;8.77;;;9.70;99.90;;;;;;4974279;28;20034;-78
2023/10/17 08:45:46;;;;;;;17.40;9.00;;;9.70;99.90;;;;;;4974860;28;20480;-78
2023/10/17 08:48:14;;;;;;;15.87;9.00;;;9.80;99.90;;;;;;4974585;28;20053;-78
2023/10/17 08:50:40;;;;;;;16.23;8.60;;;9.80;99.90;;;;;;4974143;28;20031;-77
2023/10/17 08:53:19;;;;;;;15.87;8.67;;;9.90;99.90;;;;;;4956249;28;20026;-77
2023/10/17 08:55:48;;;;;;;13.10;8.40;;;10.00;99.90;;;;;;4974042;28;20058;-77
2023/10/17 08:58:17;;;;;;;13.50;8.25;;;10.00;99.80;;;;;;4973652;28;20428;-77
2023/10/17 09:03:28;;;;;;;15.33;9.10;;;10.10;99.70;;;;;;4973529;28;20049;-77
2023/10/17 09:05:58;;;;;;;14.47;9.53;;;10.20;99.60;;;;;;4956068;28;20037;-77
2023/10/17 09:11:14;;;;;;;13.75;8.18;;;10.30;99.50;;;;;;4973803;28;20114;-78
2023/10/17 09:16:15;;;;;;;13.75;7.32;;;10.40;99.40;;;;;;4973521;28;20475;-78
2023/10/17 09:18:48;;;;;;;14.02;7.75;;;10.50;99.40;;;;;;4955901;28;20039;-78
2023/10/17 09:21:20;;;;;;;10.45;5.93;;;10.50;99.30;;;;;;4956187;28;20031;-77
2023/10/17 09:23:47;;;;;;;16.45;8.82;;;10.60;99.20;;;;;;4973609;28;20046;-78
2023/10/17 09:26:20;;;;;;;12.35;7.63;;;10.60;99.20;;;;;;4973968;28;20087;-77
2023/10/17 09:28:47;;;;;;;13.77;8.20;;;10.80;99.30;;;;;;4974233;28;20372;-77
2023/10/17 09:31:15;;;;;;;12.60;7.63;;;10.90;99.30;;;;;;4973328;28;20054;-78
2023/10/17 09:33:45;;;;;;;12.63;7.45;;;11.00;99.30;;;;;;4973798;28;20031;-77
2023/10/17 09:36:12;;;;;;;11.52;6.93;;;11.20;99.20;;;;;;4956580;28;20027;-77
2023/10/17 09:38:43;;;;;;;13.98;6.93;;;11.50;99.30;;;;;;4956113;28;20118;-78
2023/10/17 09:41:20;;;;;;;10.70;6.10;;;11.80;99.40;;;;;;4957302;28;20045;-77
2023/10/17 09:43:47;;;;;;;8.82;5.25;;;12.20;99.60;;;;;;4973881;28;20094;-78
2023/10/17 09:46:13;;;;;;;9.07;4.93;;;12.70;99.90;;;;;;4973544;28;20035;-78
2023/10/17 09:48:44;;;;;;;8.30;4.40;;;13.20;99.90;;;;;;4973899;28;20577;-77
2023/10/17 09:51:15;;;;;;;7.20;3.60;;;13.80;99.90;;;;;;4974198;28;20027;-78
2023/10/17 09:53:43;;;;;;;8.18;3.38;;;14.50;99.90;;;;;;4956458;28;20049;-78
2023/10/17 09:56:19;;;;;;;3.92;2.30;;;15.20;99.90;;;;;;4973654;28;20411;-78
2023/10/17 09:58:57;;;;;;;5.90;2.55;;;16.00;99.90;;;;;;4974071;28;20063;-78
2023/10/17 10:01:25;;;;;;;6.07;2.80;;;16.70;99.80;;;;;;4973234;28;20118;-79
2023/10/17 10:03:53;;;;;;;5.10;2.70;;;17.50;99.40;;;;;;4973539;28;20125;-78
2023/10/17 10:06:25;;;;;;;7.20;2.42;;;18.10;98.20;;;;;;4973637;28;20035;-78
2023/10/17 10:08:55;;;;;;;5.53;2.30;;;18.80;97.30;;;;;;4973833;28;20130;-79
2023/10/17 10:11:21;;;;;;;6.78;2.08;;;19.60;95.50;;;;;;4973951;28;20468;-79
2023/10/17 10:14:03;;;;;;;4.18;2.42;;;20.10;93.90;;;;;;4973075;28;20134;-79
2023/10/17 10:16:50;;;;;;;5.25;2.08;;;20.70;91.20;;;;;;4973355;28;20459;-79
2023/10/17 10:19:19;;;;;;;3.95;1.60;;;21.30;88.00;;;;;;4973714;28;20031;-78
2023/10/17 10:21:54;;;;;;;3.40;1.55;;;21.60;86.70;;;;;;4973218;28;20031;-78
2023/10/17 10:24:31;;;;;;;4.22;1.77;;;22.00;82.50;;;;;;4973545;28;20125;-79
2023/10/17 10:27:24;;;;;;;3.00;1.38;;;22.20;79.60;;;;;;4974569;28;20043;-79
2023/10/17 10:30:12;;;;;;;4.53;1.70;;;22.30;76.50;;;;;;4958991;28;20525;-78
2023/10/17 10:32:40;;;;;;;5.65;1.67;;;22.50;76.20;;;;;;4976752;28;20082;-80
2023/10/17 10:35:06;;;;;;;4.07;1.83;;;22.80;74.10;;;;;;4976946;28;20035;-80
2023/10/17 10:37:54;;;;;;;4.30;1.58;;;22.70;71.20;;;;;;4977079;28;20031;-79
2023/10/17 10:40:24;;;;;;;4.32;1.63;;;22.80;68.90;;;;;;4944164;28;20043;-80
2023/10/17 10:42:59;;;;;;;4.13;1.50;;;23.10;68.00;;;;;;4976589;28;20071;-80
2023/10/17 10:45:36;;;;;;;3.97;1.75;;;23.30;67.00;;;;;;4976448;28;20027;-81
2023/10/17 10:48:14;;;;;;;6.82;1.70;;;23.50;64.80;;;;;;4976918;28;20038;-81
2023/10/17 10:50:43;;;;;;;3.03;1.42;;;23.60;63.60;;;;;;4975352;28;20148;-80
2023/10/17 10:53:23;;;;;;;2.60;1.15;;;24.00;63.60;;;;;;4976303;28;20168;-79
2023/10/17 10:55:52;;;;;;;4.15;1.70;;;24.40;62.10;;;;;;4976553;28;20031;-79
2023/10/17 10:58:18;;;;;;;4.05;1.60;;;24.60;60.50;;;;;;4976126;28;20035;-79
2023/10/17 11:00:44;;;;;;;3.33;1.55;;;24.70;59.50;;;;;;4976503;28;20030;-80
2023/10/17 11:03:10;;;;;;;4.13;1.60;;;25.00;58.80;;;;;;4959079;28;20507;-80
2023/10/17 11:05:55;;;;;;;3.92;1.70;;;25.20;58.30;;;;;;4976166;28;20086;-80
2023/10/17 11:08:37;;;;;;;4.00;1.40;;;25.60;56.90;;;;;;4975984;28;20063;-80
2023/10/17 11:11:05;;;;;;;4.82;1.52;;;25.90;56.80;;;;;;4976186;28;20038;-80
2023/10/17 11:13:36;;;;;;;4.25;1.58;;;26.00;55.80;;;;;;4958251;28;20039;-80
2023/10/17 11:16:05;;;;;;;3.30;1.10;;;26.20;55.40;;;;;;4975999;28;20615;-80
2023/10/17 11:18:43;;;;;;;2.58;1.08;;;26.40;54.80;;;;;;4958770;28;20126;-79
2023/10/17 11:21:09;;;;;;;5.50;1.60;;;26.80;53.50;;;;;;4959002;28;20037;-80
2023/10/17 11:23:41;;;;;;;5.38;1.10;;;27.00;52.60;;;;;;4975718;28;20479;-80
2023/10/17 11:26:11;;;;;;;3.47;1.17;;;27.30;51.70;;;;;;4976049;28;20042;-79
2023/10/17 11:28:42;;;;;;;2.90;1.30;;;27.40;51.40;;;;;;4958209;28;20054;-80
2023/10/17 11:31:13;;;;;;;3.40;1.08;;;27.60;50.90;;;;;;4976065;28;20383;-80
2023/10/17 11:33:45;;;;;;;5.00;1.38;;;27.70;50.30;;;;;;4958264;28;20031;-79
2023/10/17 11:36:20;;;;;;;3.80;1.30;;;27.90;49.90;;;;;;4975652;28;20061;-80
2023/10/17 11:38:57;;;;;;;2.63;0.98;;;28.00;50.00;;;;;;4975169;28;20027;-80
2023/10/17 11:41:29;;;;;;;5.57;1.13;;;28.40;49.00;;;;;;4958130;28;20037;-80
2023/10/17 11:44:03;;;;;;;2.97;1.10;;;28.60;48.90;;;;;;4975364;28;20118;-80
2023/10/17 11:46:30;;;;;;;1.88;0.90;;;28.70;48.60;;;;;;4975418;28;20118;-80
2023/10/17 11:49:21;;;;;;;2.83;1.00;;;28.80;48.10;;;;;;4975148;28;20117;-80
2023/10/17 11:52:09;;;;;;;3.83;1.23;;;29.10;47.20;;;;;;4975692;28;20027;-81
2023/10/17 11:54:55;;;;;;;3.05;1.02;;;29.20;46.70;;;;;;4957982;28;20042;-80
2023/10/17 11:57:25;;;;;;;3.83;0.95;;;29.40;46.50;;;;;;4957681;28;20030;-79
2023/10/17 12:00:35;;;;;;;4.38;1.00;;;29.60;46.70;;;;;;4976076;28;20030;-80
2023/10/17 12:02:54;;;;;;;2.65;1.00;;;29.80;45.30;;;;;;4971367;28;20043;-80
2023/10/17 12:05:21;;;;;;;3.60;1.33;;;29.90;45.60;;;;;;4975106;28;20107;-80
2023/10/17 12:07:53;;;;;;;3.35;1.08;;;29.80;44.90;;;;;;4974764;28;20042;-80
2023/10/17 12:10:24;;;;;;;4.18;0.90;;;29.80;44.70;;;;;;4974881;28;20062;-80
2023/10/17 12:12:58;;;;;;;3.05;1.10;;;29.90;44.50;;;;;;4974627;28;20027;-79
2023/10/17 12:15:24;;;;;;;1.80;0.80;;;29.60;43.70;;;;;;4974944;28;20034;-79
2023/10/17 12:17:50;;;;;;;5.35;1.05;;;29.40;43.70;;;;;;4974934;28;20122;-79
2023/10/17 12:20:25;;;;;;;3.50;1.00;;;29.30;44.10;;;;;;4974779;28;20105;-78
2023/10/17 12:22:57;;;;;;;3.55;1.20;;;29.00;43.30;;;;;;4957519;28;20111;-79
2023/10/17 12:25:23;;;;;;;2.90;0.80;;;28.60;43.60;;;;;;4956929;28;20030;-79
2023/10/17 12:27:54;;;;;;;3.40;0.80;;;28.60;43.40;;;;;;4957453;28;20034;-79
2023/10/17 12:30:24;;;;;;;3.60;0.90;;;28.40;42.90;;;;;;4974996;28;20031;-79
2023/10/17 12:32:50;;;;;;;3.15;0.80;;;28.10;43.10;;;;;;4974403;28;20050;-78
2023/10/17 12:35:16;;;;;;;4.07;0.80;;;27.60;43.10;;;;;;4974693;28;20388;-79
2023/10/17 12:37:45;;;;;;;1.88;0.63;;;27.30;43.80;;;;;;4957303;28;20133;-78
2023/10/17 12:40:22;;;;;;;3.90;0.80;;;27.60;44.00;;;;;;4974213;28;20031;-79
2023/10/17 12:42:51;;;;;;;5.13;0.80;;;28.00;43.90;;;;;;4957126;28;20031;-79
2023/10/17 12:45:19;;;;;;;2.38;0.60;;;28.50;43.90;;;;;;4974727;28;20059;-79
2023/10/17 12:47:48;;;;;;;2.53;0.80;;;28.80;43.40;;;;;;4974221;28;20483;-79
2023/10/17 12:50:18;;;;;;;2.92;0.80;;;29.10;43.20;;;;;;4973730;28;20086;-80
2023/10/17 12:52:44;;;;;;;3.13;0.65;;;29.50;42.90;;;;;;4974224;28;20033;-79
2023/10/17 12:55:11;;;;;;;2.97;0.63;;;29.80;42.70;;;;;;4973967;28;20039;-79
2023/10/17 12:57:38;;;;;;;1.70;0.63;;;30.00;42.40;;;;;;4974240;28;20039;-81
2023/10/17 13:00:09;;;;;;;2.15;0.60;;;30.00;42.10;;;;;;4974182;28;20034;-80
2023/10/17 13:02:39;;;;;;;2.13;0.50;;;30.10;41.90;;;;;;4974522;28;20034;-80
2023/10/17 13:05:09;;;;;;;2.88;0.68;;;30.30;41.40;;;;;;4941094;28;20053;-79
2023/10/17 13:07:37;;;;;;;1.17;0.50;;;30.30;41.30;;;;;;4956797;28;20079;-80
2023/10/17 13:10:03;;;;;;;2.92;0.75;;;30.40;41.30;;;;;;4973817;28;20035;-80
2023/10/17 13:12:29;;;;;;;2.58;0.60;;;30.60;41.10;;;;;;4973829;28;20045;-80
2023/10/17 13:14:56;;;;;;;3.05;0.75;;;30.80;40.90;;;;;;4973775;28;20038;-80
2023/10/17 13:17:22;;;;;;;3.15;0.75;;;31.10;40.80;;;;;;4956939;28;20031;-80
2023/10/17 13:19:51;;;;;;;3.30;0.60;;;31.20;40.60;;;;;;4974326;28;20502;-80
2023/10/17 13:22:17;;;;;;;2.60;0.65;;;31.30;40.20;;;;;;4974008;28;20117;-81
2023/10/17 13:24:45;;;;;;;4.05;0.70;;;31.50;40.00;;;;;;4956347;28;20114;-81
2023/10/17 13:27:15;;;;;;;2.47;0.68;;;31.60;39.60;;;;;;4974079;28;20035;-81
2023/10/17 13:29:41;;;;;;;2.08;0.68;;;31.60;39.50;;;;;;4959588;28;20039;-78
2023/10/17 13:32:07;;;;;;;1.77;0.70;;;31.70;39.40;;;;;;4946781;28;20050;-80
2023/10/17 13:34:37;;;;;;;1.58;0.50;;;31.70;39.00;;;;;;4954409;29;20032;-79
2023/10/17 13:37:04;;;;;;;1.48;0.50;;;31.70;38.70;;;;;;4937170;29;20066;-79
2023/10/17 13:39:36;;;;;;;1.98;0.50;;;31.80;38.60;;;;;;4936450;29;20372;-80
2023/10/17 13:42:02;;;;;;;1.20;0.57;;;31.60;38.30;;;;;;4954763;29;20039;-79
2023/10/17 13:44:29;;;;;;;2.60;0.77;;;31.70;38.40;;;;;;4936979;29;20082;-80
2023/10/17 13:46:55;;;;;;;3.67;0.50;;;31.60;38.40;;;;;;4954672;29;20034;-79
2023/10/17 13:49:21;;;;;;;2.33;0.70;;;31.60;38.20;;;;;;4954776;29;20038;-80
2023/10/17 13:51:47;;;;;;;1.75;0.40;;;31.50;38.10;;;;;;4954305;29;20144;-79
2023/10/17 13:54:13;;;;;;;2.42;0.40;;;31.50;38.00;;;;;;4954373;29;20510;-80
2023/10/17 13:56:43;;;;;;;1.48;0.40;;;31.50;37.90;;;;;;4954368;29;20499;-80
2023/10/17 13:59:09;;;;;;;2.78;0.60;;;31.40;38.50;;;;;;4954338;29;20035;-79
2023/10/17 14:01:47;;;;;;;2.55;0.63;;;31.30;37.60;;;;;;4939186;29;20547;-80
2023/10/17 14:04:13;;;;;;;5.15;0.52;;;31.10;37.50;;;;;;4958230;29;20038;-79
2023/10/17 14:06:42;;;;;;;1.60;0.45;;;30.80;37.60;;;;;;4940473;29;20035;-79
2023/10/17 14:09:17;;;;;;;1.45;0.50;;;30.50;37.70;;;;;;4940894;29;20039;-81
2023/10/17 14:11:46;;;;;;;2.13;0.47;;;30.00;37.80;;;;;;4957958;29;20114;-80
2023/10/17 14:14:13;;;;;;;3.80;0.60;;;29.50;38.00;;;;;;4957503;29;20039;-81
2023/10/17 14:16:42;;;;;;;0.82;0.32;;;29.00;38.30;;;;;;4956852;29;20070;-80
2023/10/17 14:22:05;;;;;;;1.38;0.52;;;28.10;39.20;;;;;;4957698;29;20062;-80
2023/10/17 14:27:15;;;;;;;2.08;0.65;;;27.70;39.80;;;;;;4957814;29;20043;-80
2023/10/17 14:29:42;;;;;;;1.38;0.50;;;27.60;40.70;;;;;;4957707;29;20408;-80
2023/10/17 14:32:08;;;;;;;1.83;0.60;;;27.60;40.20;;;;;;4957640;29;20051;-80
2023/10/17 14:34:36;;;;;;;1.88;0.60;;;27.80;40.20;;;;;;4957464;29;20140;-81
2023/10/17 14:37:05;;;;;;;2.80;0.70;;;28.00;40.20;;;;;;4957273;29;20031;-78
2023/10/17 14:39:32;;;;;;;3.55;0.80;;;28.10;40.10;;;;;;4957474;29;20059;-80
2023/10/17 14:41:57;;;;;;;5.18;0.63;;;28.00;40.00;;;;;;4957129;29;20579;-80
2023/10/17 14:44:24;;;;;;;1.17;0.40;;;28.00;40.10;;;;;;4942168;28;20050;-81
2023/10/17 14:46:53;;;;;;;3.28;0.80;;;28.10;40.20;;;;;;4965981;28;20396;-80
2023/10/17 14:49:19;;;;;;;2.05;0.60;;;28.10;40.00;;;;;;4957252;29;20023;-81
2023/10/17 14:51:45;;;;;;;3.15;0.80;;;28.00;40.00;;;;;;4956753;29;20032;-82
2023/10/17 14:54:13;;;;;;;3.05;0.70;;;28.10;40.00;;;;;;4956147;29;20500;-80
2023/10/17 14:56:39;;;;;;;1.27;0.50;;;28.00;39.90;;;;;;4956938;29;20035;-80
2023/10/17 14:59:05;;;;;;;1.90;0.50;;;28.10;40.10;;;;;;4957318;29;20114;-79
2023/10/17 15:01:31;;;;;;;1.83;0.50;;;28.20;39.90;;;;;;4939726;29;20118;-80
2023/10/17 15:03:59;;;;;;;2.08;0.80;;;28.10;39.80;;;;;;4956859;29;20027;-79
2023/10/17 15:06:25;;;;;;;1.70;0.55;;;27.90;39.90;;;;;;4956672;29;20058;-78
2023/10/17 15:08:51;;;;;;;1.52;0.60;;;27.60;40.00;;;;;;4939309;29;20059;-78
2023/10/17 15:11:20;;;;;;;3.47;0.60;;;27.40;40.20;;;;;;4939436;29;20062;-79
2023/10/17 15:13:46;;;;;;;1.83;0.63;;;27.30;40.60;;;;;;4956028;28;20442;-79
2023/10/17 15:16:16;;;;;;;3.20;0.90;;;27.20;40.70;;;;;;4955503;29;20031;-79
2023/10/17 15:18:42;;;;;;;1.55;0.60;;;27.10;40.70;;;;;;4956673;29;20043;-79
2023/10/17 15:21:08;;;;;;;1.88;0.57;;;26.80;40.60;;;;;;4956198;29;20093;-79
2023/10/17 15:23:40;;;;;;;2.05;0.70;;;26.50;40.90;;;;;;4956309;29;20472;-78